sensor_id;sensor_type;location;lat;lon;timestamp;pressure;altitude;pressure_sealevel;temperature;humidity
72438;BME280;60444;43.534;-5.674;2022-07-29T00:00:41;101672.19;;;21.56;74.03
72438;BME280;60444;43.534;-5.674;2022-07-29T00:03:12;101656.19;;;21.50;74.37
72438;BME280;60444;43.534;-5.674;2022-07-29T00:05:41;101673.72;;;21.60;74.54
72438;BME280;60444;43.534;-5.674;2022-07-29T00:08:08;101680.09;;;21.60;73.53
72438;BME280;60444;43.534;-5.674;2022-07-29T00:10:34;101668.19;;;21.60;74.41
72438;BME280;60444;43.534;-5.674;2022-07-29T00:13:00;101667.06;;;21.51;75.17
72438;BME280;60444;43.534;-5.674;2022-07-29T00:15:26;101674.94;;;21.56;74.03
72438;BME280;60444;43.534;-5.674;2022-07-29T00:17:51;101652.69;;;21.48;74.47
72438;BME280;60444;43.534;-5.674;2022-07-29T00:20:17;101674.81;;;21.57;74.25
72438;BME280;60444;43.534;-5.674;2022-07-29T00:22:43;101661.56;;;21.51;74.29
72438;BME280;60444;43.534;-5.674;2022-07-29T00:25:09;101656.19;;;21.50;74.11
72438;BME280;60444;43.534;-5.674;2022-07-29T00:27:36;101653.44;;;21.50;74.10
72438;BME280;60444;43.534;-5.674;2022-07-29T00:30:03;101664.69;;;21.58;74.41
72438;BME280;60444;43.534;-5.674;2022-07-29T00:32:29;101641.66;;;21.48;73.40
72438;BME280;60444;43.534;-5.674;2022-07-29T00:34:54;101638.91;;;21.48;75.01
72438;BME280;60444;43.534;-5.674;2022-07-29T00:37:38;101643.06;;;21.53;74.87
72438;BME280;60444;43.534;-5.674;2022-07-29T00:40:04;101651.06;;;21.56;74.84
72438;BME280;60444;43.534;-5.674;2022-07-29T00:42:30;101646.66;;;21.54;74.13
72438;BME280;60444;43.534;-5.674;2022-07-29T00:44:56;101642.03;;;21.54;74.48
72438;BME280;60444;43.534;-5.674;2022-07-29T00:47:21;101633.28;;;21.49;73.99
72438;BME280;60444;43.534;-5.674;2022-07-29T00:49:47;101649.19;;;21.57;71.43
72438;BME280;60444;43.534;-5.674;2022-07-29T00:52:13;101645.41;;;21.58;74.80
72438;BME280;60444;43.534;-5.674;2022-07-29T00:54:39;101645.81;;;21.53;73.07
72438;BME280;60444;43.534;-5.674;2022-07-29T00:57:07;101628.13;;;21.45;74.80
72438;BME280;60444;43.534;-5.674;2022-07-29T00:59:35;101651.31;;;21.53;73.75
72438;BME280;60444;43.534;-5.674;2022-07-29T01:02:02;101646.66;;;21.54;74.51
72438;BME280;60444;43.534;-5.674;2022-07-29T01:04:28;101630.41;;;21.51;74.15
72438;BME280;60444;43.534;-5.674;2022-07-29T01:06:55;101642.03;;;21.54;72.94
72438;BME280;60444;43.534;-5.674;2022-07-29T01:09:21;101627.38;;;21.43;72.61
72438;BME280;60444;43.534;-5.674;2022-07-29T01:11:48;101632.41;;;21.49;74.85
72438;BME280;60444;43.534;-5.674;2022-07-29T01:14:15;101639.91;;;21.47;74.45
72438;BME280;60444;43.534;-5.674;2022-07-29T01:17:02;101623.66;;;21.44;74.74
72438;BME280;60444;43.534;-5.674;2022-07-29T01:22:22;101635.91;;;21.51;74.66
72438;BME280;60444;43.534;-5.674;2022-07-29T01:30:09;101639.06;;;21.46;74.66
72438;BME280;60444;43.534;-5.674;2022-07-29T01:32:37;101622.38;;;21.37;75.23
72438;BME280;60444;43.534;-5.674;2022-07-29T01:35:12;101620.75;;;21.34;74.30
72438;BME280;60444;43.534;-5.674;2022-07-29T01:37:50;101635.28;;;21.47;74.80
72438;BME280;60444;43.534;-5.674;2022-07-29T01:41:08;101641.91;;;21.45;75.31
72438;BME280;60444;43.534;-5.674;2022-07-29T01:43:12;101629.41;;;21.41;74.80
72438;BME280;60444;43.534;-5.674;2022-07-29T01:48:47;101638.16;;;21.46;75.37
72438;BME280;60444;43.534;-5.674;2022-07-29T01:51:20;101654.81;;;21.44;75.32
72438;BME280;60444;43.534;-5.674;2022-07-29T01:54:02;101651.16;;;21.44;75.21
72438;BME280;60444;43.534;-5.674;2022-07-29T01:56:31;101640.78;;;21.36;75.56
72438;BME280;60444;43.534;-5.674;2022-07-29T01:58:59;101621.38;;;21.27;75.86
72438;BME280;60444;43.534;-5.674;2022-07-29T02:01:27;101648.91;;;21.38;76.04
72438;BME280;60444;43.534;-5.674;2022-07-29T02:03:54;101643.28;;;21.39;75.50
72438;BME280;60444;43.534;-5.674;2022-07-29T02:06:22;101644.66;;;21.45;75.78
72438;BME280;60444;43.534;-5.674;2022-07-29T02:08:49;101646.56;;;21.44;75.91
72438;BME280;60444;43.534;-5.674;2022-07-29T02:11:16;101643.28;;;21.39;75.74
72438;BME280;60444;43.534;-5.674;2022-07-29T02:13:43;101623.63;;;21.33;75.61
72438;BME280;60444;43.534;-5.674;2022-07-29T02:16:10;101626.25;;;21.34;75.92
72438;BME280;60444;43.534;-5.674;2022-07-29T02:18:39;101627.13;;;21.35;75.49
72438;BME280;60444;43.534;-5.674;2022-07-29T02:21:06;101622.00;;;21.30;74.81
72438;BME280;60444;43.534;-5.674;2022-07-29T02:23:35;101643.28;;;21.39;75.66
72438;BME280;60444;43.534;-5.674;2022-07-29T02:26:01;101621.13;;;21.30;74.99
72438;BME280;60444;43.534;-5.674;2022-07-29T02:28:29;101631.88;;;21.33;75.49
72438;BME280;60444;43.534;-5.674;2022-07-29T02:30:59;101633.38;;;21.26;74.01
72438;BME280;60444;43.534;-5.674;2022-07-29T02:33:30;101629.00;;;21.23;75.93
72438;BME280;60444;43.534;-5.674;2022-07-29T02:35:57;101630.91;;;21.23;75.25
72438;BME280;60444;43.534;-5.674;2022-07-29T02:38:25;101645.38;;;21.25;72.08
72438;BME280;60444;43.534;-5.674;2022-07-29T02:41:15;101652.53;;;21.27;74.92
72438;BME280;60444;43.534;-5.674;2022-07-29T02:43:43;101641.50;;;21.16;72.70
72438;BME280;60444;43.534;-5.674;2022-07-29T02:46:14;101651.13;;;21.22;73.48
72438;BME280;60444;43.534;-5.674;2022-07-29T02:48:48;101643.13;;;21.19;73.93
72438;BME280;60444;43.534;-5.674;2022-07-29T02:51:25;101637.84;;;21.16;73.92
72438;BME280;60444;43.534;-5.674;2022-07-29T02:53:54;101644.13;;;21.18;75.30
72438;BME280;60444;43.534;-5.674;2022-07-29T02:56:25;101641.00;;;21.11;73.04
72438;BME280;60444;43.534;-5.674;2022-07-29T02:58:58;101653.25;;;21.18;75.44
72438;BME280;60444;43.534;-5.674;2022-07-29T03:01:30;101648.00;;;21.15;75.93
72438;BME280;60444;43.534;-5.674;2022-07-29T03:04:00;101660.00;;;21.14;73.12
72438;BME280;60444;43.534;-5.674;2022-07-29T03:06:27;101661.13;;;21.12;73.02
72438;BME280;60444;43.534;-5.674;2022-07-29T03:08:54;101652.25;;;21.08;73.16
72438;BME280;60444;43.534;-5.674;2022-07-29T03:11:20;101660.72;;;21.05;73.33
72438;BME280;60444;43.534;-5.674;2022-07-29T03:13:47;101640.41;;;20.95;74.03
72438;BME280;60444;43.534;-5.674;2022-07-29T03:16:13;101657.69;;;20.97;73.96
72438;BME280;60444;43.534;-5.674;2022-07-29T03:18:39;101657.13;;;21.05;76.16
72438;BME280;60444;43.534;-5.674;2022-07-29T03:21:05;101669.53;;;21.10;76.28
72438;BME280;60444;43.534;-5.674;2022-07-29T03:23:31;101664.50;;;21.04;74.76
72438;BME280;60444;43.534;-5.674;2022-07-29T03:25:57;101637.03;;;20.92;75.23
72438;BME280;60444;43.534;-5.674;2022-07-29T03:28:22;101642.59;;;21.03;76.62
72438;BME280;60444;43.534;-5.674;2022-07-29T03:30:48;101660.38;;;21.10;76.39
72438;BME280;60444;43.534;-5.674;2022-07-29T03:33:14;101643.59;;;21.02;76.27
72438;BME280;60444;43.534;-5.674;2022-07-29T03:35:40;101654.13;;;21.08;76.57
72438;BME280;60444;43.534;-5.674;2022-07-29T03:38:06;101643.59;;;21.02;75.76
72438;BME280;60444;43.534;-5.674;2022-07-29T03:40:34;101649.38;;;21.10;75.78
72438;BME280;60444;43.534;-5.674;2022-07-29T03:43:02;101653.88;;;21.11;76.30
72438;BME280;60444;43.534;-5.674;2022-07-29T03:45:31;101657.63;;;21.10;76.27
72438;BME280;60444;43.534;-5.674;2022-07-29T03:48:01;101658.09;;;21.04;74.03
72438;BME280;60444;43.534;-5.674;2022-07-29T03:50:28;101625.75;;;20.84;74.54
72438;BME280;60444;43.534;-5.674;2022-07-29T03:52:55;101656.69;;;20.98;74.26
72438;BME280;60444;43.534;-5.674;2022-07-29T03:55:21;101640.53;;;20.94;74.99
72438;BME280;60444;43.534;-5.674;2022-07-29T03:57:48;101658.91;;;20.93;74.45
72438;BME280;60444;43.534;-5.674;2022-07-29T04:00:15;101660.78;;;20.93;75.79
72438;BME280;60444;43.534;-5.674;2022-07-29T04:02:41;101653.41;;;20.93;77.24
72438;BME280;60444;43.534;-5.674;2022-07-29T04:05:14;101667.16;;;20.93;77.16
72438;BME280;60444;43.534;-5.674;2022-07-29T04:07:46;101625.25;;;20.79;77.14
72438;BME280;60444;43.534;-5.674;2022-07-29T04:10:12;101647.41;;;20.88;77.13
72438;BME280;60444;43.534;-5.674;2022-07-29T04:12:38;101654.06;;;20.97;77.11
72438;BME280;60444;43.534;-5.674;2022-07-29T04:15:04;101654.19;;;20.95;76.91
72438;BME280;60444;43.534;-5.674;2022-07-29T04:17:30;101646.28;;;20.91;77.09
72438;BME280;60444;43.534;-5.674;2022-07-29T04:19:55;101665.59;;;21.02;76.66
72438;BME280;60444;43.534;-5.674;2022-07-29T04:22:21;101659.34;;;21.00;76.62
72438;BME280;60444;43.534;-5.674;2022-07-29T04:24:46;101632.50;;;20.91;76.36
72438;BME280;60444;43.534;-5.674;2022-07-29T04:27:12;101644.28;;;20.93;76.96
72438;BME280;60444;43.534;-5.674;2022-07-29T04:29:38;101648.69;;;20.95;76.51
72438;BME280;60444;43.534;-5.674;2022-07-29T04:32:03;101669.34;;;21.01;76.93
72438;BME280;60444;43.534;-5.674;2022-07-29T04:34:29;101649.56;;;20.96;77.42
72438;BME280;60444;43.534;-5.674;2022-07-29T04:36:55;101664.94;;;20.98;77.38
72438;BME280;60444;43.534;-5.674;2022-07-29T04:39:20;101672.88;;;21.03;77.04
72438;BME280;60444;43.534;-5.674;2022-07-29T04:41:46;101663.72;;;21.02;76.61
72438;BME280;60444;43.534;-5.674;2022-07-29T04:44:12;101654.31;;;20.94;76.97
72438;BME280;60444;43.534;-5.674;2022-07-29T04:46:38;101670.25;;;21.01;76.79
72438;BME280;60444;43.534;-5.674;2022-07-29T04:49:03;101659.69;;;20.95;76.38
72438;BME280;60444;43.534;-5.674;2022-07-29T04:51:29;101650.66;;;20.93;76.90
72438;BME280;60444;43.534;-5.674;2022-07-29T04:53:54;101653.28;;;20.95;77.00
72438;BME280;60444;43.534;-5.674;2022-07-29T04:56:20;101669.09;;;21.04;76.61
72438;BME280;60444;43.534;-5.674;2022-07-29T04:58:46;101668.91;;;20.94;77.09
72438;BME280;60444;43.534;-5.674;2022-07-29T05:01:11;101668.69;;;20.97;76.88
72438;BME280;60444;43.534;-5.674;2022-07-29T05:03:37;101656.41;;;20.90;76.61
72438;BME280;60444;43.534;-5.674;2022-07-29T05:06:02;101670.25;;;21.01;76.30
72438;BME280;60444;43.534;-5.674;2022-07-29T05:08:28;101664.06;;;20.98;76.93
72438;BME280;60444;43.534;-5.674;2022-07-29T05:10:54;101673.00;;;21.01;76.74
72438;BME280;60444;43.534;-5.674;2022-07-29T05:13:19;101678.13;;;21.06;76.88
72438;BME280;60444;43.534;-5.674;2022-07-29T05:15:45;101692.00;;;21.04;76.91
72438;BME280;60444;43.534;-5.674;2022-07-29T05:18:10;101677.28;;;20.93;77.04
72438;BME280;60444;43.534;-5.674;2022-07-29T05:20:36;101703.66;;;21.08;76.78
72438;BME280;60444;43.534;-5.674;2022-07-29T05:23:02;101702.75;;;21.07;77.10
72438;BME280;60444;43.534;-5.674;2022-07-29T05:25:28;101688.94;;;20.96;77.01
72438;BME280;60444;43.534;-5.674;2022-07-29T05:27:55;101714.66;;;21.08;77.37
72438;BME280;60444;43.534;-5.674;2022-07-29T05:30:21;101721.03;;;21.08;77.21
72438;BME280;60444;43.534;-5.674;2022-07-29T05:32:46;101713.75;;;21.07;76.65
72438;BME280;60444;43.534;-5.674;2022-07-29T05:35:13;101717.28;;;21.09;77.09
72438;BME280;60444;43.534;-5.674;2022-07-29T05:37:39;101711.91;;;21.08;77.14
72438;BME280;60444;43.534;-5.674;2022-07-29T05:40:05;101720.66;;;21.13;76.33
72438;BME280;60444;43.534;-5.674;2022-07-29T05:42:31;101721.69;;;21.12;76.54
72438;BME280;60444;43.534;-5.674;2022-07-29T05:44:56;101730.69;;;21.14;76.67
72438;BME280;60444;43.534;-5.674;2022-07-29T05:47:23;101715.41;;;21.10;77.27
72438;BME280;60444;43.534;-5.674;2022-07-29T05:49:49;101729.69;;;21.15;77.07
72438;BME280;60444;43.534;-5.674;2022-07-29T05:52:14;101723.25;;;21.03;74.46
72438;BME280;60444;43.534;-5.674;2022-07-29T05:54:40;101735.66;;;21.09;75.78
72438;BME280;60444;43.534;-5.674;2022-07-29T05:57:06;101724.38;;;21.01;75.93
72438;BME280;60444;43.534;-5.674;2022-07-29T05:59:40;101747.19;;;21.14;76.37
72438;BME280;60444;43.534;-5.674;2022-07-29T06:02:06;101757.19;;;21.15;76.56
72438;BME280;60444;43.534;-5.674;2022-07-29T06:04:32;101729.88;;;21.01;76.67
72438;BME280;60444;43.534;-5.674;2022-07-29T06:06:58;101751.69;;;21.15;76.68
72438;BME280;60444;43.534;-5.674;2022-07-29T06:09:24;101764.34;;;21.17;77.02
72438;BME280;60444;43.534;-5.674;2022-07-29T06:11:51;101752.06;;;21.10;76.45
72438;BME280;60444;43.534;-5.674;2022-07-29T06:14:17;101763.47;;;21.17;76.46
72438;BME280;60444;43.534;-5.674;2022-07-29T06:16:43;101750.03;;;21.12;76.05
72438;BME280;60444;43.534;-5.674;2022-07-29T06:19:08;101753.22;;;21.19;76.50
72438;BME280;60444;43.534;-5.674;2022-07-29T06:21:34;101757.72;;;21.20;75.84
72438;BME280;60444;43.534;-5.674;2022-07-29T06:23:59;101763.09;;;21.21;75.68
72438;BME280;60444;43.534;-5.674;2022-07-29T06:26:25;101754.19;;;21.18;75.89
72438;BME280;60444;43.534;-5.674;2022-07-29T06:28:50;101765.63;;;21.24;76.18
72438;BME280;60444;43.534;-5.674;2022-07-29T06:31:16;101752.44;;;21.17;76.25
72438;BME280;60444;43.534;-5.674;2022-07-29T06:33:42;101766.59;;;21.23;75.59
72438;BME280;60444;43.534;-5.674;2022-07-29T06:36:07;101769.00;;;21.28;74.82
72438;BME280;60444;43.534;-5.674;2022-07-29T06:38:33;101777.00;;;21.31;75.12
72438;BME280;60444;43.534;-5.674;2022-07-29T06:40:59;101774.00;;;21.34;75.48
72438;BME280;60444;43.534;-5.674;2022-07-29T06:43:30;101776.13;;;21.30;72.46
72438;BME280;60444;43.534;-5.674;2022-07-29T06:46:02;101778.78;;;21.32;72.18
72438;BME280;60444;43.534;-5.674;2022-07-29T06:48:28;101782.41;;;21.32;70.81
72438;BME280;60444;43.534;-5.674;2022-07-29T06:50:54;101770.00;;;21.27;70.29
72438;BME280;60444;43.534;-5.674;2022-07-29T06:53:19;101772.28;;;21.33;73.87
72438;BME280;60444;43.534;-5.674;2022-07-29T06:55:45;101774.25;;;21.31;71.10
72438;BME280;60444;43.534;-5.674;2022-07-29T06:58:11;101756.78;;;21.32;73.78
72438;BME280;60444;43.534;-5.674;2022-07-29T07:00:37;101786.97;;;21.44;74.09
72438;BME280;60444;43.534;-5.674;2022-07-29T07:03:03;101790.72;;;21.54;73.59
72438;BME280;60444;43.534;-5.674;2022-07-29T07:05:28;101776.59;;;21.48;73.82
72438;BME280;60444;43.534;-5.674;2022-07-29T07:07:54;101800.25;;;21.61;73.81
72438;BME280;60444;43.534;-5.674;2022-07-29T07:10:20;101805.63;;;21.63;70.31
72438;BME280;60444;43.534;-5.674;2022-07-29T07:12:45;101789.50;;;21.58;70.09
72438;BME280;60444;43.534;-5.674;2022-07-29T07:15:11;101812.53;;;21.68;69.45
72438;BME280;60444;43.534;-5.674;2022-07-29T07:17:36;101806.69;;;21.73;69.51
72438;BME280;60444;43.534;-5.674;2022-07-29T07:20:04;101788.75;;;21.67;69.36
72438;BME280;60444;43.534;-5.674;2022-07-29T07:22:30;101798.81;;;21.80;70.01
72438;BME280;60444;43.534;-5.674;2022-07-29T07:24:55;101788.69;;;21.80;69.39
72438;BME280;60444;43.534;-5.674;2022-07-29T07:27:21;101805.38;;;21.90;68.65
72438;BME280;60444;43.534;-5.674;2022-07-29T07:29:47;101794.44;;;21.88;70.68
72438;BME280;60444;43.534;-5.674;2022-07-29T07:32:12;101790.72;;;21.89;69.12
72438;BME280;60444;43.534;-5.674;2022-07-29T07:34:38;101789.06;;;21.87;70.63
72438;BME280;60444;43.534;-5.674;2022-07-29T07:37:04;101796.59;;;21.96;68.61
72438;BME280;60444;43.534;-5.674;2022-07-29T07:39:29;101785.56;;;21.96;68.88
72438;BME280;60444;43.534;-5.674;2022-07-29T07:41:55;101807.28;;;22.11;71.52
72438;BME280;60444;43.534;-5.674;2022-07-29T07:44:21;101795.97;;;22.03;68.13
72438;BME280;60444;43.534;-5.674;2022-07-29T07:46:46;101798.47;;;22.06;67.03
72438;BME280;60444;43.534;-5.674;2022-07-29T07:49:12;101811.41;;;22.17;67.01
72438;BME280;60444;43.534;-5.674;2022-07-29T07:51:37;101818.16;;;22.24;66.71
72438;BME280;60444;43.534;-5.674;2022-07-29T07:54:03;101802.00;;;22.19;66.69
72438;BME280;60444;43.534;-5.674;2022-07-29T07:56:29;101806.53;;;22.20;67.08
72438;BME280;60444;43.534;-5.674;2022-07-29T07:58:54;101806.88;;;22.27;68.41
72438;BME280;60444;43.534;-5.674;2022-07-29T08:01:20;101809.50;;;22.28;68.38
72438;BME280;60444;43.534;-5.674;2022-07-29T08:03:49;101815.78;;;22.30;66.67
72438;BME280;60444;43.534;-5.674;2022-07-29T08:06:15;101824.94;;;22.42;66.03
72438;BME280;60444;43.534;-5.674;2022-07-29T08:08:41;101837.22;;;22.49;67.06
72438;BME280;60444;43.534;-5.674;2022-07-29T08:11:06;101823.56;;;22.47;67.50
72438;BME280;60444;43.534;-5.674;2022-07-29T08:13:33;101820.81;;;22.47;67.68
72438;BME280;60444;43.534;-5.674;2022-07-29T08:15:59;101830.31;;;22.54;67.26
72438;BME280;60444;43.534;-5.674;2022-07-29T08:18:37;101819.53;;;22.51;66.93
72438;BME280;60444;43.534;-5.674;2022-07-29T08:21:04;101837.88;;;22.63;68.37
72438;BME280;60444;43.534;-5.674;2022-07-29T08:23:29;101813.00;;;22.52;68.07
72438;BME280;60444;43.534;-5.674;2022-07-29T08:26:06;101838.63;;;22.66;67.61
72438;BME280;60444;43.534;-5.674;2022-07-29T08:28:39;101825.19;;;22.61;67.28
72438;BME280;60444;43.534;-5.674;2022-07-29T08:31:05;101840.09;;;22.70;67.01
72438;BME280;60444;43.534;-5.674;2022-07-29T08:33:30;101823.06;;;22.64;68.15
72438;BME280;60444;43.534;-5.674;2022-07-29T08:35:56;101838.84;;;22.74;65.86
72438;BME280;60444;43.534;-5.674;2022-07-29T08:38:21;101847.47;;;22.80;65.25
72438;BME280;60444;43.534;-5.674;2022-07-29T08:40:47;101839.31;;;22.79;67.01
72438;BME280;60444;43.534;-5.674;2022-07-29T08:43:13;101846.84;;;22.88;65.74
72438;BME280;60444;43.534;-5.674;2022-07-29T08:45:47;101830.28;;;22.77;65.55
72438;BME280;60444;43.534;-5.674;2022-07-29T08:48:14;101832.56;;;22.83;65.24
72438;BME280;60444;43.534;-5.674;2022-07-29T08:50:41;101860.13;;;22.94;64.72
72438;BME280;60444;43.534;-5.674;2022-07-29T08:53:11;101853.50;;;22.96;65.67
72438;BME280;60444;43.534;-5.674;2022-07-29T08:55:40;101853.84;;;22.92;67.70
72438;BME280;60444;43.534;-5.674;2022-07-29T08:58:06;101856.72;;;23.01;66.30
72438;BME280;60444;43.534;-5.674;2022-07-29T09:00:33;101861.00;;;23.05;65.97
72438;BME280;60444;43.534;-5.674;2022-07-29T09:03:02;101862.13;;;23.03;65.81
72438;BME280;60444;43.534;-5.674;2022-07-29T09:05:29;101873.50;;;23.09;65.68
72438;BME280;60444;43.534;-5.674;2022-07-29T09:07:56;101875.00;;;23.13;66.43
72438;BME280;60444;43.534;-5.674;2022-07-29T09:10:22;101861.59;;;23.09;66.30
72438;BME280;60444;43.534;-5.674;2022-07-29T09:12:48;101884.38;;;23.22;66.22
72438;BME280;60444;43.534;-5.674;2022-07-29T09:15:14;101881.75;;;23.20;66.18
72438;BME280;60444;43.534;-5.674;2022-07-29T09:17:48;101884.00;;;23.26;66.68
72438;BME280;60444;43.534;-5.674;2022-07-29T09:20:18;101885.28;;;23.22;66.31
72438;BME280;60444;43.534;-5.674;2022-07-29T09:22:45;101869.13;;;23.18;66.31
72438;BME280;60444;43.534;-5.674;2022-07-29T09:25:38;101881.91;;;23.30;66.19
72438;BME280;60444;43.534;-5.674;2022-07-29T09:28:09;101887.41;;;23.30;66.83
72438;BME280;60444;43.534;-5.674;2022-07-29T09:30:46;101877.59;;;23.26;66.56
72438;BME280;60444;43.534;-5.674;2022-07-29T09:33:14;101893.28;;;23.36;66.45
72438;BME280;60444;43.534;-5.674;2022-07-29T09:35:40;101880.78;;;23.32;66.22
72438;BME280;60444;43.534;-5.674;2022-07-29T09:38:13;101891.28;;;23.38;66.67
72438;BME280;60444;43.534;-5.674;2022-07-29T09:40:39;101866.22;;;23.19;65.92
72438;BME280;60444;43.534;-5.674;2022-07-29T09:43:13;101880.13;;;23.29;66.59
72438;BME280;60444;43.534;-5.674;2022-07-29T09:45:39;101895.72;;;23.30;66.07
72438;BME280;60444;43.534;-5.674;2022-07-29T09:48:19;101896.31;;;23.33;66.86
72438;BME280;60444;43.534;-5.674;2022-07-29T09:50:46;101884.53;;;23.31;66.40
72438;BME280;60444;43.534;-5.674;2022-07-29T09:53:34;101892.69;;;23.33;66.47
72438;BME280;60444;43.534;-5.674;2022-07-29T09:56:01;101884.66;;;23.30;65.79
72438;BME280;60444;43.534;-5.674;2022-07-29T09:58:27;101891.56;;;23.35;66.09
72438;BME280;60444;43.534;-5.674;2022-07-29T10:00:54;101906.97;;;23.38;65.12
72438;BME280;60444;43.534;-5.674;2022-07-29T10:03:21;101906.59;;;23.42;65.47
72438;BME280;60444;43.534;-5.674;2022-07-29T10:06:07;101898.69;;;23.38;65.90
72438;BME280;60444;43.534;-5.674;2022-07-29T10:08:33;101906.06;;;23.48;66.13
72438;BME280;60444;43.534;-5.674;2022-07-29T10:11:16;101892.25;;;23.48;65.55
72438;BME280;60444;43.534;-5.674;2022-07-29T10:13:43;101907.63;;;23.62;65.15
72438;BME280;60444;43.534;-5.674;2022-07-29T10:16:09;101909.00;;;23.67;65.32
72438;BME280;60444;43.534;-5.674;2022-07-29T10:18:35;101907.88;;;23.70;64.48
72438;BME280;60444;43.534;-5.674;2022-07-29T10:21:01;101899.22;;;23.63;64.88
72438;BME280;60444;43.534;-5.674;2022-07-29T10:23:31;101911.38;;;23.72;65.82
72438;BME280;60444;43.534;-5.674;2022-07-29T10:25:57;101926.66;;;23.76;65.85
72438;BME280;60444;43.534;-5.674;2022-07-29T10:28:23;101924.50;;;23.80;65.78
72438;BME280;60444;43.534;-5.674;2022-07-29T10:30:51;101926.88;;;23.84;66.29
72438;BME280;60444;43.534;-5.674;2022-07-29T10:41:18;101932.72;;;23.70;66.22
72438;BME280;60444;43.534;-5.674;2022-07-29T10:44:20;101942.81;;;23.60;66.48
72438;BME280;60444;43.534;-5.674;2022-07-29T10:46:46;101936.47;;;23.48;67.01
72438;BME280;60444;43.534;-5.674;2022-07-29T10:49:20;101945.13;;;23.44;66.75
72438;BME280;60444;43.534;-5.674;2022-07-29T10:52:25;101944.84;;;23.47;67.58
72438;BME280;60444;43.534;-5.674;2022-07-29T10:54:47;101952.66;;;23.42;67.69
72438;BME280;60444;43.534;-5.674;2022-07-29T10:59:43;101932.34;;;23.21;68.54
72438;BME280;60444;43.534;-5.674;2022-07-29T11:05:18;101945.88;;;23.24;68.71
72438;BME280;60444;43.534;-5.674;2022-07-29T11:10:37;101942.00;;;23.26;68.01
72438;BME280;60444;43.534;-5.674;2022-07-29T11:13:03;101944.00;;;23.24;67.05
72438;BME280;60444;43.534;-5.674;2022-07-29T11:15:29;101917.16;;;23.15;67.65
72438;BME280;60444;43.534;-5.674;2022-07-29T11:18:14;101904.38;;;23.14;66.32
72438;BME280;60444;43.534;-5.674;2022-07-29T11:20:50;101929.19;;;23.25;64.72
72438;BME280;60444;43.534;-5.674;2022-07-29T11:31:48;101924.19;;;23.19;66.78
72438;BME280;60444;43.534;-5.674;2022-07-29T11:34:20;101938.13;;;23.29;68.07
72438;BME280;60444;43.534;-5.674;2022-07-29T11:42:36;101942.16;;;23.36;70.26
72438;BME280;60444;43.534;-5.674;2022-07-29T11:45:05;101941.88;;;23.39;69.86
72438;BME280;60444;43.534;-5.674;2022-07-29T11:47:33;101940.75;;;23.41;70.01
72438;BME280;60444;43.534;-5.674;2022-07-29T11:50:00;101910.50;;;23.29;70.22
72438;BME280;60444;43.534;-5.674;2022-07-29T11:52:41;101936.34;;;23.39;70.50
72438;BME280;60444;43.534;-5.674;2022-07-29T11:55:18;101934.72;;;23.36;70.22
72438;BME280;60444;43.534;-5.674;2022-07-29T11:58:04;101938.22;;;23.27;70.24
72438;BME280;60444;43.534;-5.674;2022-07-29T12:00:36;101940.78;;;23.30;70.44
72438;BME280;60444;43.534;-5.674;2022-07-29T12:03:05;101932.06;;;23.24;70.19
72438;BME280;60444;43.534;-5.674;2022-07-29T12:08:21;101925.06;;;23.20;71.08
72438;BME280;60444;43.534;-5.674;2022-07-29T12:10:49;101916.41;;;23.13;70.70
72438;BME280;60444;43.534;-5.674;2022-07-29T12:13:17;101905.25;;;23.04;70.72
72438;BME280;60444;43.534;-5.674;2022-07-29T12:15:51;101930.22;;;23.13;70.69
72438;BME280;60444;43.534;-5.674;2022-07-29T12:18:18;101937.63;;;23.13;70.89
72438;BME280;60444;43.534;-5.674;2022-07-29T12:20:46;101939.75;;;22.98;71.33
72438;BME280;60444;43.534;-5.674;2022-07-29T12:23:12;101946.94;;;23.01;71.20
72438;BME280;60444;43.534;-5.674;2022-07-29T12:25:40;101949.69;;;23.01;71.41
72438;BME280;60444;43.534;-5.674;2022-07-29T12:28:08;101940.78;;;22.97;71.75
72438;BME280;60444;43.534;-5.674;2022-07-29T12:30:45;101936.03;;;22.88;71.10
72438;BME280;60444;43.534;-5.674;2022-07-29T12:33:18;101944.16;;;22.90;71.71
72438;BME280;60444;43.534;-5.674;2022-07-29T12:35:47;101937.28;;;22.84;71.82
72438;BME280;60444;43.534;-5.674;2022-07-29T12:38:13;101954.97;;;22.93;71.64
72438;BME280;60444;43.534;-5.674;2022-07-29T12:40:39;101956.72;;;22.94;71.98
72438;BME280;60444;43.534;-5.674;2022-07-29T12:43:24;101957.75;;;22.93;71.43
72438;BME280;60444;43.534;-5.674;2022-07-29T12:45:55;101951.19;;;22.94;71.59
72438;BME280;60444;43.534;-5.674;2022-07-29T12:48:34;101961.97;;;22.97;71.44
72438;BME280;60444;43.534;-5.674;2022-07-29T12:51:02;101952.09;;;22.83;71.99
72438;BME280;60444;43.534;-5.674;2022-07-29T12:53:28;101959.84;;;22.89;72.56
72438;BME280;60444;43.534;-5.674;2022-07-29T12:55:55;101950.84;;;22.87;72.58
72438;BME280;60444;43.534;-5.674;2022-07-29T12:58:34;101946.94;;;22.90;72.51
72438;BME280;60444;43.534;-5.674;2022-07-29T13:01:09;101961.34;;;23.04;72.72
72438;BME280;60444;43.534;-5.674;2022-07-29T13:03:50;101970.03;;;23.11;72.08
72438;BME280;60444;43.534;-5.674;2022-07-29T13:06:44;101967.63;;;23.17;72.78
72438;BME280;60444;43.534;-5.674;2022-07-29T13:09:19;101975.50;;;23.22;72.06
72438;BME280;60444;43.534;-5.674;2022-07-29T13:11:50;101975.50;;;23.22;72.04
72438;BME280;60444;43.534;-5.674;2022-07-29T13:14:33;101967.13;;;23.23;72.02
72438;BME280;60444;43.534;-5.674;2022-07-29T13:17:02;101977.00;;;23.26;72.13
72438;BME280;60444;43.534;-5.674;2022-07-29T13:19:45;101966.09;;;23.24;72.30
72438;BME280;60444;43.534;-5.674;2022-07-29T13:22:13;101974.41;;;23.35;72.20
72438;BME280;60444;43.534;-5.674;2022-07-29T13:24:51;101967.63;;;23.39;72.16
72438;BME280;60444;43.534;-5.674;2022-07-29T13:27:18;101960.47;;;23.37;72.16
72438;BME280;60444;43.534;-5.674;2022-07-29T13:29:45;101980.38;;;23.51;71.32
72438;BME280;60444;43.534;-5.674;2022-07-29T13:32:12;101976.97;;;23.59;71.37